New Harbor, ME (Heathkit)

43° 52' 34"N, 69° 29' 40"W, Elevation 65 ft.
Eastern Time

Hourly observations for the last 72 hours

Date Time Temperature (°F) Humi-
dity

(%)
Wind
(mph)
Pressure Rain (in)
Air Dew 6 Hour 1 Hr 3 Hr 6 Hr Day
Alt
(in)
Sea
Level

(mb)
Max Min
22 06:00 64 63 96 SSW 3 G 12 29.60 1002.4 0.01
22 05:00 63 62 95 S 5 G 15 29.57 1001.4 0.01 0.01
22 04:00 63 62 95 SSW 4 G 17 29.57 1001.4 0.01
22 03:00 63 62 97 S 8 G 22 29.60 1002.4 0.01 0.01
22 02:00 63 61 63 56 93 S 9 G 31 29.62 1003.1 0.00
22 01:00 63 61 93 S 8 G 19 29.58 1001.7 0.00
22 00:00 63 61 92 SSW 7 G 26 29.67 1004.8 0.00
21 23:00 63 60 91 S 7 G 25 29.70 1005.8 0.00
21 22:00 63 60 90 S 8 G 18 29.75 1007.5 0.00
21 21:00 63 60 89 S 7 G 22 29.77 1008.2 0.00
21 20:00 62 59 65 55 91 S 9 G 26 29.80 1009.2 0.00
21 19:00 61 57 88 S 8 G 20 29.83 1010.2 0.00
21 18:00 61 57 86 S 9 G 26 29.86 1011.2 0.00
21 17:00 62 57 85 S 7 G 20 29.90 1012.6 0.00
21 16:00 63 58 83 S 6 G 15 29.94 1013.9 0.00
21 15:00 63 58 84 S 6 G 15 29.96 1014.6 0.00
21 14:00 65 59 65 54 80 S 6 G 13 30.02 1016.6 0.00
21 13:00 62 57 84 SSE 5 G 11 30.05 1017.6 0.00
21 12:00 63 57 81 SSE 4 G 15 30.07 1018.3 0.00
21 11:00 64 57 79 SSE 2 G 13 30.10 1019.3 0.00
21 10:00 62 56 82 S 2 G 10 30.12 1020.0 0.00
21 09:00 59 55 85 S 3 G 11 30.16 1021.4 0.00
21 08:00 56 54 57 49 92 S 5 G 9 30.15 1021.0 0.00
21 07:00 54 54 99 SSE 0 G 1 30.17 1021.7 0.00
21 06:00 54 54 99 S 2 G 6 30.16 1021.4 0.00
21 05:00 53 53 99 S 2 G 4 30.15 1021.0 0.00
21 04:00 53 53 99 SW 1 G 1 30.16 1021.4 0.00
21 03:00 52 52 99 SSE 0 G 1 30.15 1021.0 0.00
21 02:00 52 52 54 49 99 SSW 0 G 1 30.16 1021.4 0.00
21 01:00 52 52 99 ESE 0 G 1 30.17 1021.7 0.00
21 00:00 51 51 99 S 0 G 1 30.17 1021.7 0.01
20 23:00 51 51 99 ESE 0 G 1 30.17 1021.7 0.01
20 22:00 52 52 99 ESE 0 G 1 30.15 1021.0 0.01
20 21:00 53 52 98 ESE 0 G 1 30.16 1021.4 0.01
20 20:00 54 53 61 50 96 SW 1 G 1 30.16 1021.4 0.01
20 19:00 56 53 91 S 1 G 3 30.14 1020.7 0.01
20 18:00 57 53 88 SSE 1 G 6 30.13 1020.4 0.01
20 17:00 58 54 86 ESE 1 G 2 30.11 1019.7 0.01
20 16:00 60 54 81 SE 1 G 2 30.12 1020.0 0.01
20 15:00 59 53 81 S 2 G 6 30.12 1020.0 0.01
20 14:00 59 54 61 50 82 S 1 G 4 30.11 1019.7 0.01
20 13:00 60 55 83 SE 2 G 6 30.12 1020.0 0.01
20 12:00 59 55 86 ESE 4 G 12 30.15 1021.0 0.01
20 11:00 56 52 87 ESE 6 G 14 30.13 1020.4 0.01
20 10:00 57 53 87 E 3 G 7 30.14 1020.7 0.01
20 09:00 56 53 91 ESE 2 G 9 30.11 1019.7 0.01
20 08:00 55 53 56 49 93 ESE 2 G 10 30.09 1019.0 0.01
20 07:00 54 53 96 ESE 1 G 3 30.06 1018.0 0.01
20 06:00 54 52 93 ESE 5 G 7 30.04 1017.3 0.01
20 05:00 54 53 95 E 3 G 6 30.03 1017.0 0.01
20 04:00 55 54 97 ESE 4 G 7 30.01 1016.3 0.01
20 03:00 55 54 98 ESE 3 G 7 29.99 1015.6 0.01
20 02:00 56 56 58 51 99 ESE 3 G 11 29.99 1015.6 0.01 0.01 0.01
20 01:00 56 56 99 ESE 4 G 8 29.98 1015.3 0.01 0.01
20 00:00 57 56 95 ESE 3 G 9 29.96 1014.6 0.00
19 23:00 57 56 95 E 4 G 7 29.95 1014.3 0.00
19 22:00 57 56 95 ESE 3 G 6 29.93 1013.6 0.00
19 21:00 58 56 94 ESE 2 G 8 29.93 1013.6 0.00
19 20:00 58 56 62 53 92 SE 2 G 7 29.92 1013.2 0.00
19 19:00 59 56 89 ESE 4 G 9 29.89 1012.2 0.00
19 18:00 60 56 88 ESE 2 G 7 29.88 1011.9 0.00
19 17:00 60 56 86 ESE 5 G 9 29.84 1010.5 0.00
19 16:00 61 56 84 SE 2 G 11 29.83 1010.2 0.00
19 15:00 60 56 86 E 5 G 12 29.82 1009.9 0.00
19 14:00 62 57 62 51 84 ESE 5 G 11 29.82 1009.9 0.00
19 13:00 61 55 82 ESE 5 G 12 29.82 1009.9 0.00
19 12:00 61 58 89 ESE 3 G 12 29.82 1009.9 0.00
19 11:00 58 55 91 ESE 5 G 11 29.82 1009.9 0.00
19 10:00 57 55 93 SE 4 G 9 29.79 1008.8 0.00
19 09:00 56 55 97 ESE 3 G 10 29.78 1008.5 0.00
19 08:00 55 54 58 50 98 ESE 3 G 11 29.77 1008.2 0.00
19 07:00 55 55 99 ESE 4 G 10 29.74 1007.1 0.00

Data generated by WxSolution Version 1.9.1.5, Build 2018.05.20.